sensor_id;sensor_type;location;lat;lon;timestamp;pressure;altitude;pressure_sealevel;temperature
70533;BMP180;58088;51.186;17.130;2024-03-23T00:53:29;99524.40;;;13.60
70533;BMP180;58088;51.186;17.130;2024-03-23T00:55:55;99522.00;;;13.60
70533;BMP180;58088;51.186;17.130;2024-03-23T00:58:21;99522.00;;;13.60
70533;BMP180;58088;51.186;17.130;2024-03-23T01:00:47;99517.00;;;13.60
70533;BMP180;58088;51.186;17.130;2024-03-23T01:03:14;99516.20;;;13.60
70533;BMP180;58088;51.186;17.130;2024-03-23T01:05:40;99511.60;;;13.60
70533;BMP180;58088;51.186;17.130;2024-03-23T01:08:06;99506.60;;;13.54
70533;BMP180;58088;51.186;17.130;2024-03-23T01:10:32;99507.20;;;13.50
70533;BMP180;58088;51.186;17.130;2024-03-23T01:12:59;99498.40;;;13.50
70533;BMP180;58088;51.186;17.130;2024-03-23T01:15:25;99499.60;;;13.40
70533;BMP180;58088;51.186;17.130;2024-03-23T01:17:51;99496.40;;;13.40
70533;BMP180;58088;51.186;17.130;2024-03-23T01:20:17;99487.40;;;13.40
70533;BMP180;58088;51.186;17.130;2024-03-23T01:22:43;99485.60;;;13.40
70533;BMP180;58088;51.186;17.130;2024-03-23T01:25:09;99475.80;;;13.40
70533;BMP180;58088;51.186;17.130;2024-03-23T01:27:36;99477.00;;;13.40
70533;BMP180;58088;51.186;17.130;2024-03-23T01:30:02;99484.00;;;13.40
70533;BMP180;58088;51.186;17.130;2024-03-23T01:32:28;99477.60;;;13.40
70533;BMP180;58088;51.186;17.130;2024-03-23T01:34:54;99472.60;;;13.42
70533;BMP180;58088;51.186;17.130;2024-03-23T01:37:20;99463.20;;;13.40
70533;BMP180;58088;51.186;17.130;2024-03-23T01:39:47;99461.60;;;13.40
70533;BMP180;58088;51.186;17.130;2024-03-23T01:42:13;99455.20;;;13.40
70533;BMP180;58088;51.186;17.130;2024-03-23T01:44:39;99447.00;;;13.36
70533;BMP180;58088;51.186;17.130;2024-03-23T01:47:06;99443.60;;;13.40
70533;BMP180;58088;51.186;17.130;2024-03-23T01:49:33;99434.00;;;13.32
70533;BMP180;58088;51.186;17.130;2024-03-23T01:51:59;99427.00;;;13.30
70533;BMP180;58088;51.186;17.130;2024-03-23T01:54:26;99421.60;;;13.30
70533;BMP180;58088;51.186;17.130;2024-03-23T01:56:54;99418.80;;;13.30
70533;BMP180;58088;51.186;17.130;2024-03-23T01:59:20;99411.20;;;13.30
70533;BMP180;58088;51.186;17.130;2024-03-23T02:02:28;99405.60;;;13.20
70533;BMP180;58088;51.186;17.130;2024-03-23T02:05:14;99406.80;;;13.20
70533;BMP180;58088;51.186;17.130;2024-03-23T02:07:41;99412.60;;;13.18
70533;BMP180;58088;51.186;17.130;2024-03-23T02:10:10;99412.60;;;13.20
70533;BMP180;58088;51.186;17.130;2024-03-23T02:12:39;99414.00;;;13.20
70533;BMP180;58088;51.186;17.130;2024-03-23T02:15:05;99411.00;;;13.20
70533;BMP180;58088;51.186;17.130;2024-03-23T02:17:34;99403.00;;;13.20
70533;BMP180;58088;51.186;17.130;2024-03-23T02:20:02;99402.60;;;13.20
70533;BMP180;58088;51.186;17.130;2024-03-23T02:22:38;99394.60;;;13.20
70533;BMP180;58088;51.186;17.130;2024-03-23T02:25:06;99393.20;;;13.20
70533;BMP180;58088;51.186;17.130;2024-03-23T02:27:33;99390.20;;;13.20
70533;BMP180;58088;51.186;17.130;2024-03-23T02:30:02;99382.80;;;13.20
70533;BMP180;58088;51.186;17.130;2024-03-23T02:32:28;99373.40;;;13.20
70533;BMP180;58088;51.186;17.130;2024-03-23T02:34:54;99366.20;;;13.26
70533;BMP180;58088;51.186;17.130;2024-03-23T02:37:20;99365.60;;;13.30
70533;BMP180;58088;51.186;17.130;2024-03-23T02:39:46;99359.80;;;13.30
70533;BMP180;58088;51.186;17.130;2024-03-23T02:42:12;99359.80;;;13.30
70533;BMP180;58088;51.186;17.130;2024-03-23T02:44:38;99359.40;;;13.30
70533;BMP180;58088;51.186;17.130;2024-03-23T02:47:06;99360.40;;;13.30
70533;BMP180;58088;51.186;17.130;2024-03-23T02:49:32;99360.60;;;13.20
70533;BMP180;58088;51.186;17.130;2024-03-23T02:51:58;99354.20;;;13.20
70533;BMP180;58088;51.186;17.130;2024-03-23T02:54:24;99352.40;;;13.20
70533;BMP180;58088;51.186;17.130;2024-03-23T02:56:50;99354.80;;;13.20
70533;BMP180;58088;51.186;17.130;2024-03-23T02:59:16;99355.00;;;13.12
70533;BMP180;58088;51.186;17.130;2024-03-23T03:01:42;99347.40;;;13.10
70533;BMP180;58088;51.186;17.130;2024-03-23T03:04:09;99338.60;;;13.10
70533;BMP180;58088;51.186;17.130;2024-03-23T03:06:35;99331.20;;;13.10
70533;BMP180;58088;51.186;17.130;2024-03-23T03:09:01;99325.80;;;13.10
70533;BMP180;58088;51.186;17.130;2024-03-23T03:11:27;99331.80;;;13.10
70533;BMP180;58088;51.186;17.130;2024-03-23T03:13:53;99325.60;;;13.10
70533;BMP180;58088;51.186;17.130;2024-03-23T03:16:20;99327.20;;;13.14
70533;BMP180;58088;51.186;17.130;2024-03-23T03:18:45;99324.80;;;13.18
70533;BMP180;58088;51.186;17.130;2024-03-23T03:21:12;99322.60;;;13.20
70533;BMP180;58088;51.186;17.130;2024-03-23T03:23:39;99316.00;;;13.20
70533;BMP180;58088;51.186;17.130;2024-03-23T03:26:06;99308.80;;;13.24
70533;BMP180;58088;51.186;17.130;2024-03-23T03:28:33;99299.40;;;13.24
70533;BMP180;58088;51.186;17.130;2024-03-23T03:31:00;99296.20;;;13.20
70533;BMP180;58088;51.186;17.130;2024-03-23T03:33:29;99296.00;;;13.22
70533;BMP180;58088;51.186;17.130;2024-03-23T03:35:55;99302.00;;;13.28
70533;BMP180;58088;51.186;17.130;2024-03-23T03:38:21;99296.20;;;13.20
70533;BMP180;58088;51.186;17.130;2024-03-23T03:40:48;99288.80;;;13.20
70533;BMP180;58088;51.186;17.130;2024-03-23T03:43:14;99286.80;;;13.20
70533;BMP180;58088;51.186;17.130;2024-03-23T03:45:40;99280.00;;;13.20
70533;BMP180;58088;51.186;17.130;2024-03-23T03:48:07;99281.80;;;13.20
70533;BMP180;58088;51.186;17.130;2024-03-23T03:50:34;99273.40;;;13.20
70533;BMP180;58088;51.186;17.130;2024-03-23T03:53:00;99278.80;;;13.20
70533;BMP180;58088;51.186;17.130;2024-03-23T03:55:26;99274.80;;;13.20
70533;BMP180;58088;51.186;17.130;2024-03-23T03:57:53;99273.40;;;13.20
70533;BMP180;58088;51.186;17.130;2024-03-23T04:00:19;99268.40;;;13.16
70533;BMP180;58088;51.186;17.130;2024-03-23T04:02:45;99273.80;;;13.10
70533;BMP180;58088;51.186;17.130;2024-03-23T04:05:12;99268.20;;;13.10
70533;BMP180;58088;51.186;17.130;2024-03-23T04:07:38;99264.80;;;13.10
70533;BMP180;58088;51.186;17.130;2024-03-23T04:10:05;99259.40;;;13.10
70533;BMP180;58088;51.186;17.130;2024-03-23T04:12:38;99258.00;;;13.10
70533;BMP180;58088;51.186;17.130;2024-03-23T04:15:04;99260.80;;;13.10
70533;BMP180;58088;51.186;17.130;2024-03-23T04:17:32;99259.40;;;13.10
70533;BMP180;58088;51.186;17.130;2024-03-23T04:20:01;99261.40;;;13.10
70533;BMP180;58088;51.186;17.130;2024-03-23T04:22:27;99263.20;;;13.10
70533;BMP180;58088;51.186;17.130;2024-03-23T04:24:56;99260.80;;;13.10
70533;BMP180;58088;51.186;17.130;2024-03-23T04:27:23;99264.60;;;13.20
70533;BMP180;58088;51.186;17.130;2024-03-23T04:29:52;99267.00;;;13.20
70533;BMP180;58088;51.186;17.130;2024-03-23T04:32:18;99265.40;;;13.20
70533;BMP180;58088;51.186;17.130;2024-03-23T04:34:45;99259.60;;;13.20
70533;BMP180;58088;51.186;17.130;2024-03-23T04:37:12;99263.60;;;13.12
70533;BMP180;58088;51.186;17.130;2024-03-23T04:39:39;99263.20;;;13.10
70533;BMP180;58088;51.186;17.130;2024-03-23T04:42:05;99265.80;;;13.10
70533;BMP180;58088;51.186;17.130;2024-03-23T04:44:31;99263.20;;;13.10
70533;BMP180;58088;51.186;17.130;2024-03-23T04:46:58;99264.20;;;13.02
70533;BMP180;58088;51.186;17.130;2024-03-23T04:49:24;99252.20;;;13.00
70533;BMP180;58088;51.186;17.130;2024-03-23T04:51:51;99255.20;;;12.92
70533;BMP180;58088;51.186;17.130;2024-03-23T04:54:17;99250.80;;;12.90
70533;BMP180;58088;51.186;17.130;2024-03-23T04:56:43;99253.80;;;12.90
70533;BMP180;58088;51.186;17.130;2024-03-23T04:59:09;99249.40;;;12.80
70533;BMP180;58088;51.186;17.130;2024-03-23T05:01:36;99243.80;;;12.80
70533;BMP180;58088;51.186;17.130;2024-03-23T05:04:04;99236.60;;;12.80
70533;BMP180;58088;51.186;17.130;2024-03-23T05:06:31;99239.20;;;12.80
70533;BMP180;58088;51.186;17.130;2024-03-23T05:08:57;99228.00;;;12.80
70533;BMP180;58088;51.186;17.130;2024-03-23T05:11:23;99233.80;;;12.80
70533;BMP180;58088;51.186;17.130;2024-03-23T05:13:49;99225.80;;;12.78
70533;BMP180;58088;51.186;17.130;2024-03-23T05:16:16;99223.80;;;12.70
70533;BMP180;58088;51.186;17.130;2024-03-23T05:18:42;99224.00;;;12.70
70533;BMP180;58088;51.186;17.130;2024-03-23T05:21:08;99232.80;;;12.78
70533;BMP180;58088;51.186;17.130;2024-03-23T05:23:34;99230.00;;;12.80
70533;BMP180;58088;51.186;17.130;2024-03-23T05:26:01;99229.00;;;12.78
70533;BMP180;58088;51.186;17.130;2024-03-23T05:28:27;99228.20;;;12.80
70533;BMP180;58088;51.186;17.130;2024-03-23T05:30:54;99226.60;;;12.80
70533;BMP180;58088;51.186;17.130;2024-03-23T05:33:21;99220.80;;;12.70
70533;BMP180;58088;51.186;17.130;2024-03-23T05:35:56;99210.60;;;12.70
70533;BMP180;58088;51.186;17.130;2024-03-23T05:38:22;99210.20;;;12.70
70533;BMP180;58088;51.186;17.130;2024-03-23T05:40:59;99205.60;;;12.68
70533;BMP180;58088;51.186;17.130;2024-03-23T05:43:26;99204.80;;;12.70
70533;BMP180;58088;51.186;17.130;2024-03-23T05:45:57;99205.20;;;12.70
70533;BMP180;58088;51.186;17.130;2024-03-23T05:48:26;99204.60;;;12.70
70533;BMP180;58088;51.186;17.130;2024-03-23T05:50:53;99203.80;;;12.70
70533;BMP180;58088;51.186;17.130;2024-03-23T05:53:20;99199.20;;;12.70
70533;BMP180;58088;51.186;17.130;2024-03-23T05:55:50;99195.80;;;12.74
70533;BMP180;58088;51.186;17.130;2024-03-23T05:58:17;99196.60;;;12.80
70533;BMP180;58088;51.186;17.130;2024-03-23T06:00:44;99195.00;;;12.80
70533;BMP180;58088;51.186;17.130;2024-03-23T06:03:11;99195.60;;;12.90
70533;BMP180;58088;51.186;17.130;2024-03-23T06:05:40;99191.20;;;13.00
70533;BMP180;58088;51.186;17.130;2024-03-23T06:08:09;99188.00;;;13.00
70533;BMP180;58088;51.186;17.130;2024-03-23T06:10:36;99187.20;;;13.10
70533;BMP180;58088;51.186;17.130;2024-03-23T06:13:02;99185.20;;;13.10
70533;BMP180;58088;51.186;17.130;2024-03-23T06:15:28;99175.80;;;13.20
70533;BMP180;58088;51.186;17.130;2024-03-23T06:17:54;99183.20;;;13.20
70533;BMP180;58088;51.186;17.130;2024-03-23T06:20:20;99185.80;;;13.30
70533;BMP180;58088;51.186;17.130;2024-03-23T06:22:47;99191.00;;;13.40
70533;BMP180;58088;51.186;17.130;2024-03-23T06:25:13;99194.80;;;13.42
70533;BMP180;58088;51.186;17.130;2024-03-23T06:27:39;99197.00;;;13.50
70533;BMP180;58088;51.186;17.130;2024-03-23T06:30:06;99201.20;;;13.50
70533;BMP180;58088;51.186;17.130;2024-03-23T06:32:32;99202.80;;;13.50
70533;BMP180;58088;51.186;17.130;2024-03-23T06:34:59;99210.20;;;13.50
70533;BMP180;58088;51.186;17.130;2024-03-23T06:37:26;99192.40;;;13.50
70533;BMP180;58088;51.186;17.130;2024-03-23T06:39:52;99178.00;;;13.46
70533;BMP180;58088;51.186;17.130;2024-03-23T06:42:18;99171.80;;;13.50
70533;BMP180;58088;51.186;17.130;2024-03-23T06:44:44;99160.60;;;13.50
70533;BMP180;58088;51.186;17.130;2024-03-23T06:47:11;99147.80;;;13.54
70533;BMP180;58088;51.186;17.130;2024-03-23T06:49:37;99140.40;;;13.70
70533;BMP180;58088;51.186;17.130;2024-03-23T06:52:03;99128.80;;;13.86
70533;BMP180;58088;51.186;17.130;2024-03-23T06:54:30;99122.80;;;14.10
70533;BMP180;58088;51.186;17.130;2024-03-23T06:56:56;99122.80;;;14.30
70533;BMP180;58088;51.186;17.130;2024-03-23T06:59:22;99124.00;;;14.70
70533;BMP180;58088;51.186;17.130;2024-03-23T07:01:48;99126.80;;;14.90
70533;BMP180;58088;51.186;17.130;2024-03-23T07:04:14;99125.20;;;15.28
70533;BMP180;58088;51.186;17.130;2024-03-23T07:06:45;99119.80;;;15.78
70533;BMP180;58088;51.186;17.130;2024-03-23T07:09:12;99121.80;;;16.00
70533;BMP180;58088;51.186;17.130;2024-03-23T07:11:38;99115.80;;;16.10
70533;BMP180;58088;51.186;17.130;2024-03-23T07:14:05;99106.20;;;16.10
70533;BMP180;58088;51.186;17.130;2024-03-23T07:16:31;99092.20;;;16.10
70533;BMP180;58088;51.186;17.130;2024-03-23T07:18:57;99087.60;;;15.90
70533;BMP180;58088;51.186;17.130;2024-03-23T07:21:23;99083.00;;;16.00
70533;BMP180;58088;51.186;17.130;2024-03-23T07:23:49;99080.00;;;16.30
70533;BMP180;58088;51.186;17.130;2024-03-23T07:26:16;99068.00;;;16.70
70533;BMP180;58088;51.186;17.130;2024-03-23T07:28:43;99065.40;;;16.90
70533;BMP180;58088;51.186;17.130;2024-03-23T07:31:12;99060.00;;;17.20
70533;BMP180;58088;51.186;17.130;2024-03-23T07:33:45;99062.00;;;17.60
70533;BMP180;58088;51.186;17.130;2024-03-23T07:36:11;99056.60;;;17.92
70533;BMP180;58088;51.186;17.130;2024-03-23T07:38:41;99053.60;;;18.20
70533;BMP180;58088;51.186;17.130;2024-03-23T07:41:09;99044.20;;;18.40
70533;BMP180;58088;51.186;17.130;2024-03-23T07:43:38;99039.40;;;18.70
70533;BMP180;58088;51.186;17.130;2024-03-23T07:46:05;99035.60;;;18.90
70533;BMP180;58088;51.186;17.130;2024-03-23T07:48:32;99033.00;;;19.32
70533;BMP180;58088;51.186;17.130;2024-03-23T07:51:07;99026.20;;;19.60
70533;BMP180;58088;51.186;17.130;2024-03-23T07:53:36;99025.00;;;19.92
70533;BMP180;58088;51.186;17.130;2024-03-23T07:56:08;99018.40;;;20.18
70533;BMP180;58088;51.186;17.130;2024-03-23T07:58:36;99005.40;;;20.20
70533;BMP180;58088;51.186;17.130;2024-03-23T08:01:11;98997.00;;;20.20
70533;BMP180;58088;51.186;17.130;2024-03-23T08:03:42;98986.40;;;20.26
70533;BMP180;58088;51.186;17.130;2024-03-23T08:06:18;98989.40;;;20.18
70533;BMP180;58088;51.186;17.130;2024-03-23T08:08:50;98992.60;;;20.10
70533;BMP180;58088;51.186;17.130;2024-03-23T08:11:17;98993.40;;;20.00
70533;BMP180;58088;51.186;17.130;2024-03-23T08:13:45;98990.80;;;19.90
70533;BMP180;58088;51.186;17.130;2024-03-23T08:16:11;98983.60;;;19.76
70533;BMP180;58088;51.186;17.130;2024-03-23T08:18:39;98986.40;;;19.58
70533;BMP180;58088;51.186;17.130;2024-03-23T08:21:06;98974.00;;;19.40
70533;BMP180;58088;51.186;17.130;2024-03-23T08:23:34;98976.40;;;19.20
70533;BMP180;58088;51.186;17.130;2024-03-23T08:26:06;98968.00;;;19.10
70533;BMP180;58088;51.186;17.130;2024-03-23T08:28:33;98961.00;;;19.14
70533;BMP180;58088;51.186;17.130;2024-03-23T08:31:06;98957.00;;;19.40
70533;BMP180;58088;51.186;17.130;2024-03-23T08:33:37;98950.60;;;19.40
70533;BMP180;58088;51.186;17.130;2024-03-23T08:36:10;98937.80;;;19.50
70533;BMP180;58088;51.186;17.130;2024-03-23T08:38:43;98927.80;;;19.50
70533;BMP180;58088;51.186;17.130;2024-03-23T08:41:11;98919.40;;;19.60
70533;BMP180;58088;51.186;17.130;2024-03-23T08:43:39;98913.60;;;19.70
70533;BMP180;58088;51.186;17.130;2024-03-23T08:46:10;98912.60;;;19.70
70533;BMP180;58088;51.186;17.130;2024-03-23T08:48:39;98913.60;;;19.70
70533;BMP180;58088;51.186;17.130;2024-03-23T08:51:08;98902.00;;;19.60
70533;BMP180;58088;51.186;17.130;2024-03-23T08:53:38;98886.60;;;19.60
70533;BMP180;58088;51.186;17.130;2024-03-23T08:56:06;98883.60;;;19.50
70533;BMP180;58088;51.186;17.130;2024-03-23T08:58:35;98883.40;;;19.50
70533;BMP180;58088;51.186;17.130;2024-03-23T09:01:09;98879.40;;;19.50
70533;BMP180;58088;51.186;17.130;2024-03-23T09:03:36;98873.20;;;19.50
70533;BMP180;58088;51.186;17.130;2024-03-23T09:06:07;98870.80;;;19.40
70533;BMP180;58088;51.186;17.130;2024-03-23T09:08:34;98872.00;;;19.30
70533;BMP180;58088;51.186;17.130;2024-03-23T09:11:12;98868.80;;;19.24
70533;BMP180;58088;51.186;17.130;2024-03-23T09:13:39;98857.80;;;19.24
70533;BMP180;58088;51.186;17.130;2024-03-23T09:16:07;98854.40;;;19.28
70533;BMP180;58088;51.186;17.130;2024-03-23T09:18:36;98844.20;;;19.20
70533;BMP180;58088;51.186;17.130;2024-03-23T09:21:04;98841.20;;;19.12
70533;BMP180;58088;51.186;17.130;2024-03-23T09:23:30;98835.40;;;19.10
70533;BMP180;58088;51.186;17.130;2024-03-23T09:25:56;98832.40;;;19.00
70533;BMP180;58088;51.186;17.130;2024-03-23T09:28:22;98825.20;;;18.92
70533;BMP180;58088;51.186;17.130;2024-03-23T09:30:48;98818.60;;;18.90
70533;BMP180;58088;51.186;17.130;2024-03-23T09:33:14;98821.60;;;18.80
70533;BMP180;58088;51.186;17.130;2024-03-23T09:35:43;98818.20;;;18.70
70533;BMP180;58088;51.186;17.130;2024-03-23T09:38:13;98808.60;;;18.60
70533;BMP180;58088;51.186;17.130;2024-03-23T09:40:43;98798.80;;;18.50
70533;BMP180;58088;51.186;17.130;2024-03-23T09:43:10;98798.20;;;18.40
70533;BMP180;58088;51.186;17.130;2024-03-23T09:45:39;98791.00;;;18.30
70533;BMP180;58088;51.186;17.130;2024-03-23T09:48:09;98787.20;;;18.20
70533;BMP180;58088;51.186;17.130;2024-03-23T09:50:38;98768.60;;;18.10
70533;BMP180;58088;51.186;17.130;2024-03-23T09:53:07;98762.20;;;18.10
70533;BMP180;58088;51.186;17.130;2024-03-23T09:55:35;98759.60;;;18.10
70533;BMP180;58088;51.186;17.130;2024-03-23T09:58:03;98755.80;;;18.10
70533;BMP180;58088;51.186;17.130;2024-03-23T10:00:32;98752.40;;;18.10
70533;BMP180;58088;51.186;17.130;2024-03-23T10:02:59;98750.80;;;18.08
70533;BMP180;58088;51.186;17.130;2024-03-23T10:05:29;98749.20;;;18.00
70533;BMP180;58088;51.186;17.130;2024-03-23T10:07:58;98735.60;;;18.10
70533;BMP180;58088;51.186;17.130;2024-03-23T10:10:27;98728.00;;;18.10
70533;BMP180;58088;51.186;17.130;2024-03-23T10:12:53;98727.40;;;18.20
70533;BMP180;58088;51.186;17.130;2024-03-23T10:15:22;98724.80;;;18.30
70533;BMP180;58088;51.186;17.130;2024-03-23T10:17:49;98722.20;;;18.40
70533;BMP180;58088;51.186;17.130;2024-03-23T10:20:23;98712.60;;;18.40
70533;BMP180;58088;51.186;17.130;2024-03-23T10:22:50;98720.20;;;18.50
70533;BMP180;58088;51.186;17.130;2024-03-23T10:25:23;98714.20;;;18.60
70533;BMP180;58088;51.186;17.130;2024-03-23T10:28:00;98711.20;;;18.80
70533;BMP180;58088;51.186;17.130;2024-03-23T10:30:27;98704.40;;;19.06
70533;BMP180;58088;51.186;17.130;2024-03-23T10:33:10;98703.80;;;19.20
70533;BMP180;58088;51.186;17.130;2024-03-23T10:35:38;98702.60;;;19.24
70533;BMP180;58088;51.186;17.130;2024-03-23T10:38:08;98709.60;;;19.40
70533;BMP180;58088;51.186;17.130;2024-03-23T10:40:35;98710.80;;;19.50
70533;BMP180;58088;51.186;17.130;2024-03-23T10:43:03;98701.00;;;19.56
70533;BMP180;58088;51.186;17.130;2024-03-23T10:45:30;98699.80;;;19.80
70533;BMP180;58088;51.186;17.130;2024-03-23T10:47:57;98688.40;;;19.96
70533;BMP180;58088;51.186;17.130;2024-03-23T10:50:23;98682.40;;;20.00
70533;BMP180;58088;51.186;17.130;2024-03-23T10:52:53;98687.80;;;20.30
70533;BMP180;58088;51.186;17.130;2024-03-23T10:55:22;98678.60;;;20.50
70533;BMP180;58088;51.186;17.130;2024-03-23T10:57:55;98673.60;;;20.60
70533;BMP180;58088;51.186;17.130;2024-03-23T11:00:25;98681.40;;;20.64
70533;BMP180;58088;51.186;17.130;2024-03-23T11:02:51;98672.60;;;20.70
70533;BMP180;58088;51.186;17.130;2024-03-23T11:05:37;98664.40;;;20.70
70533;BMP180;58088;51.186;17.130;2024-03-23T11:08:04;98656.20;;;20.62
70533;BMP180;58088;51.186;17.130;2024-03-23T11:10:31;98646.20;;;20.70
70533;BMP180;58088;51.186;17.130;2024-03-23T11:13:22;98647.40;;;20.72
70533;BMP180;58088;51.186;17.130;2024-03-23T11:15:49;98635.80;;;20.82
70533;BMP180;58088;51.186;17.130;2024-03-23T11:18:21;98635.20;;;21.00
70533;BMP180;58088;51.186;17.130;2024-03-23T11:20:49;98624.80;;;21.10
70533;BMP180;58088;51.186;17.130;2024-03-23T11:23:29;98630.00;;;21.12
70533;BMP180;58088;51.186;17.130;2024-03-23T11:25:56;98620.60;;;21.20
70533;BMP180;58088;51.186;17.130;2024-03-23T11:28:23;98618.00;;;21.20
70533;BMP180;58088;51.186;17.130;2024-03-23T11:30:50;98609.80;;;21.22
70533;BMP180;58088;51.186;17.130;2024-03-23T11:33:17;98605.80;;;21.20
70533;BMP180;58088;51.186;17.130;2024-03-23T11:35:45;98601.40;;;21.30
70533;BMP180;58088;51.186;17.130;2024-03-23T11:38:16;98602.20;;;21.40
70533;BMP180;58088;51.186;17.130;2024-03-23T11:40:48;98595.40;;;21.44
70533;BMP180;58088;51.186;17.130;2024-03-23T11:43:18;98594.40;;;21.60
70533;BMP180;58088;51.186;17.130;2024-03-23T11:45:51;98586.00;;;21.70
70533;BMP180;58088;51.186;17.130;2024-03-23T11:48:22;98583.20;;;21.70
70533;BMP180;58088;51.186;17.130;2024-03-23T11:50:56;98576.80;;;21.80
70533;BMP180;58088;51.186;17.130;2024-03-23T11:53:26;98569.40;;;21.72
70533;BMP180;58088;51.186;17.130;2024-03-23T11:55:59;98566.40;;;21.60
70533;BMP180;58088;51.186;17.130;2024-03-23T11:58:30;98558.00;;;21.44
70533;BMP180;58088;51.186;17.130;2024-03-23T12:00:59;98548.80;;;21.32
70533;BMP180;58088;51.186;17.130;2024-03-23T12:03:32;98553.20;;;21.20
70533;BMP180;58088;51.186;17.130;2024-03-23T12:06:04;98555.20;;;21.14
70533;BMP180;58088;51.186;17.130;2024-03-23T12:08:33;98558.20;;;21.04
70533;BMP180;58088;51.186;17.130;2024-03-23T12:11:13;98571.20;;;20.90
70533;BMP180;58088;51.186;17.130;2024-03-23T12:13:45;98586.60;;;20.66
70533;BMP180;58088;51.186;17.130;2024-03-23T12:16:20;98595.60;;;20.50
70533;BMP180;58088;51.186;17.130;2024-03-23T12:18:49;98593.20;;;20.30
70533;BMP180;58088;51.186;17.130;2024-03-23T12:21:16;98587.80;;;20.10
70533;BMP180;58088;51.186;17.130;2024-03-23T12:23:43;98590.20;;;19.90
70533;BMP180;58088;51.186;17.130;2024-03-23T12:26:14;98597.00;;;19.80
70533;BMP180;58088;51.186;17.130;2024-03-23T12:28:41;98607.40;;;19.70
70533;BMP180;58088;51.186;17.130;2024-03-23T12:31:08;98603.80;;;19.60
70533;BMP180;58088;51.186;17.130;2024-03-23T12:33:34;98604.60;;;19.60
70533;BMP180;58088;51.186;17.130;2024-03-23T12:36:00;98609.60;;;19.50
70533;BMP180;58088;51.186;17.130;2024-03-23T12:38:27;98608.80;;;19.50
70533;BMP180;58088;51.186;17.130;2024-03-23T12:40:53;98608.40;;;19.50
70533;BMP180;58088;51.186;17.130;2024-03-23T12:43:19;98600.00;;;19.40
70533;BMP180;58088;51.186;17.130;2024-03-23T12:45:49;98604.80;;;19.40
70533;BMP180;58088;51.186;17.130;2024-03-23T12:48:18;98595.40;;;19.32
70533;BMP180;58088;51.186;17.130;2024-03-23T12:50:45;98584.40;;;19.20
70533;BMP180;58088;51.186;17.130;2024-03-23T12:53:11;98587.80;;;19.16
70533;BMP180;58088;51.186;17.130;2024-03-23T12:55:37;98599.20;;;19.10
70533;BMP180;58088;51.186;17.130;2024-03-23T12:58:04;98597.20;;;19.00
70533;BMP180;58088;51.186;17.130;2024-03-23T13:00:30;98607.20;;;18.90
70533;BMP180;58088;51.186;17.130;2024-03-23T13:02:57;98596.80;;;18.70
70533;BMP180;58088;51.186;17.130;2024-03-23T13:05:23;98619.00;;;18.70
70533;BMP180;58088;51.186;17.130;2024-03-23T13:07:49;98630.20;;;18.50
70533;BMP180;58088;51.186;17.130;2024-03-23T13:10:15;98640.00;;;18.32
70533;BMP180;58088;51.186;17.130;2024-03-23T13:12:42;98663.80;;;18.12
70533;BMP180;58088;51.186;17.130;2024-03-23T13:15:09;98669.00;;;18.00
70533;BMP180;58088;51.186;17.130;2024-03-23T13:17:35;98686.40;;;17.72
70533;BMP180;58088;51.186;17.130;2024-03-23T13:20:01;98703.60;;;17.52
70533;BMP180;58088;51.186;17.130;2024-03-23T13:22:29;98712.80;;;17.26
70533;BMP180;58088;51.186;17.130;2024-03-23T13:24:56;98725.20;;;17.00
70533;BMP180;58088;51.186;17.130;2024-03-23T13:27:21;98721.40;;;16.70
70533;BMP180;58088;51.186;17.130;2024-03-23T13:29:48;98725.00;;;16.40
70533;BMP180;58088;51.186;17.130;2024-03-23T13:32:14;98726.80;;;16.30
70533;BMP180;58088;51.186;17.130;2024-03-23T13:34:40;98732.80;;;16.10
70533;BMP180;58088;51.186;17.130;2024-03-23T13:37:06;98721.40;;;15.82
70533;BMP180;58088;51.186;17.130;2024-03-23T13:39:33;98730.00;;;15.70
70533;BMP180;58088;51.186;17.130;2024-03-23T13:41:59;98740.00;;;15.52
70533;BMP180;58088;51.186;17.130;2024-03-23T13:44:25;98753.40;;;15.40
70533;BMP180;58088;51.186;17.130;2024-03-23T13:46:52;98766.00;;;15.40
70533;BMP180;58088;51.186;17.130;2024-03-23T13:49:26;98765.60;;;15.32
70533;BMP180;58088;51.186;17.130;2024-03-23T13:51:54;98762.40;;;15.30
70533;BMP180;58088;51.186;17.130;2024-03-23T13:54:21;98770.20;;;15.30
70533;BMP180;58088;51.186;17.130;2024-03-23T13:56:55;98776.00;;;15.30
70533;BMP180;58088;51.186;17.130;2024-03-23T13:59:23;98787.40;;;15.30
70533;BMP180;58088;51.186;17.130;2024-03-23T14:01:50;98809.20;;;15.48
70533;BMP180;58088;51.186;17.130;2024-03-23T14:04:17;98830.60;;;15.40
70533;BMP180;58088;51.186;17.130;2024-03-23T14:06:46;98830.60;;;15.10
70533;BMP180;58088;51.186;17.130;2024-03-23T14:09:13;98847.60;;;14.84
70533;BMP180;58088;51.186;17.130;2024-03-23T14:11:41;98856.20;;;14.60
70533;BMP180;58088;51.186;17.130;2024-03-23T14:14:09;98846.20;;;14.26
70533;BMP180;58088;51.186;17.130;2024-03-23T14:16:35;98884.80;;;14.00
70533;BMP180;58088;51.186;17.130;2024-03-23T14:19:01;98908.80;;;13.72
70533;BMP180;58088;51.186;17.130;2024-03-23T14:21:29;98925.00;;;13.56
70533;BMP180;58088;51.186;17.130;2024-03-23T14:23:55;98939.40;;;13.32
70533;BMP180;58088;51.186;17.130;2024-03-23T14:26:21;98954.20;;;13.00
70533;BMP180;58088;51.186;17.130;2024-03-23T14:28:49;98972.40;;;12.74
70533;BMP180;58088;51.186;17.130;2024-03-23T14:31:16;98990.80;;;12.40
70533;BMP180;58088;51.186;17.130;2024-03-23T14:33:42;98990.00;;;12.22
70533;BMP180;58088;51.186;17.130;2024-03-23T14:36:17;99001.00;;;12.10
70533;BMP180;58088;51.186;17.130;2024-03-23T14:38:52;99010.60;;;11.92
70533;BMP180;58088;51.186;17.130;2024-03-23T14:41:18;99018.00;;;11.80
70533;BMP180;58088;51.186;17.130;2024-03-23T14:43:45;99023.60;;;11.80
70533;BMP180;58088;51.186;17.130;2024-03-23T14:46:16;99023.00;;;11.78
70533;BMP180;58088;51.186;17.130;2024-03-23T14:48:44;99026.00;;;11.70
70533;BMP180;58088;51.186;17.130;2024-03-23T14:51:10;99030.40;;;11.70
70533;BMP180;58088;51.186;17.130;2024-03-23T14:53:39;99031.80;;;11.52